Time;durP1;ratioP1;P1;durP2;ratioP2;P2;SDS_P1;SDS_P2;PMS_P1;PMS_P2;Temp;Humidity;BMP_temperature;BMP_pressure;BME280_temperature;BME280_humidity;BME280_pressure;Samples;Min_cycle;Max_cycle;Signal;HPM_P1;HPM_P2
2021/08/06 00:00:29;;;;;;;2.50;2.30;;;;;;;;;;1475978;40;20417;-82
2021/08/06 00:01:31;;;;;;;4.03;2.33;;;;;;;;;;1471862;40;20508;-80
2021/08/06 00:02:33;;;;;;;3.60;2.10;;;;;;;;;;1476154;40;20485;-81
2021/08/06 00:03:35;;;;;;;4.05;1.88;;;;;;;;;;1471082;40;20413;-80
2021/08/06 00:04:36;;;;;;;3.50;2.45;;;;;;;;;;1467091;40;20466;-80
2021/08/06 00:05:38;;;;;;;2.35;2.15;;;;;;;;;;1470677;40;20818;-81
2021/08/06 00:06:40;;;;;;;2.40;2.17;;;;;;;;;;1475365;40;20432;-80
2021/08/06 00:07:42;;;;;;;3.38;2.05;;;;;;;;;;1469873;40;20405;-80
2021/08/06 00:08:44;;;;;;;1.92;1.83;;;;;;;;;;1470629;40;20400;-81
2021/08/06 00:09:46;;;;;;;2.70;1.92;;;;;;;;;;1474404;40;20419;-80
2021/08/06 00:10:48;;;;;;;7.00;2.45;;;;;;;;;;1473009;40;20960;-81
2021/08/06 00:11:51;;;;;;;2.72;2.38;;;;;;;;;;1475551;40;20431;-80
2021/08/06 00:12:53;;;;;;;2.70;1.87;;;;;;;;;;1476214;40;20497;-80
2021/08/06 00:13:55;;;;;;;2.95;2.22;;;;;;;;;;1468372;40;20403;-80
2021/08/06 00:14:57;;;;;;;2.85;2.35;;;;;;;;;;1463852;40;20468;-80
2021/08/06 00:15:58;;;;;;;3.70;2.50;;;;;;;;;;1472430;40;20421;-82
2021/08/06 00:17:01;;;;;;;3.40;2.47;;;;;;;;;;1468116;40;20517;-80
2021/08/06 00:18:02;;;;;;;2.38;2.13;;;;;;;;;;1470147;40;20418;-80
2021/08/06 00:19:04;;;;;;;4.07;1.88;;;;;;;;;;1474046;40;20533;-80
2021/08/06 00:20:07;;;;;;;2.72;2.10;;;;;;;;;;1474495;40;20455;-80
2021/08/06 00:21:09;;;;;;;2.83;2.25;;;;;;;;;;1478013;40;20414;-82
2021/08/06 00:22:10;;;;;;;5.50;2.35;;;;;;;;;;1476423;40;20441;-82
2021/08/06 00:23:12;;;;;;;3.93;2.20;;;;;;;;;;1471109;40;20483;-80
2021/08/06 00:24:14;;;;;;;2.95;2.47;;;;;;;;;;1469357;40;20421;-80
2021/08/06 00:25:16;;;;;;;3.67;2.08;;;;;;;;;;1473743;40;20498;-80
2021/08/06 00:26:18;;;;;;;3.60;2.20;;;;;;;;;;1473820;40;20534;-79
2021/08/06 00:27:19;;;;;;;3.42;2.45;;;;;;;;;;1473763;40;20741;-80
2021/08/06 00:28:21;;;;;;;3.85;2.47;;;;;;;;;;1478624;40;20488;-80
2021/08/06 00:29:22;;;;;;;2.60;2.00;;;;;;;;;;1478012;40;20406;-80
2021/08/06 00:30:24;;;;;;;2.85;2.65;;;;;;;;;;1478138;40;20417;-80
2021/08/06 00:31:26;;;;;;;4.35;2.50;;;;;;;;;;1474569;40;20422;-80
2021/08/06 00:32:27;;;;;;;1.83;1.73;;;;;;;;;;1476012;40;20425;-81
2021/08/06 00:33:29;;;;;;;4.10;2.10;;;;;;;;;;1466971;40;20510;-80
2021/08/06 00:34:30;;;;;;;3.90;2.33;;;;;;;;;;1465584;40;20411;-80
2021/08/06 00:35:32;;;;;;;3.70;2.30;;;;;;;;;;1468122;40;20497;-82
2021/08/06 00:36:34;;;;;;;2.58;2.38;;;;;;;;;;1469192;40;20574;-80
2021/08/06 00:37:35;;;;;;;2.95;2.22;;;;;;;;;;1472070;40;20468;-80
2021/08/06 00:38:37;;;;;;;2.63;2.38;;;;;;;;;;1471304;40;20448;-79
2021/08/06 00:39:39;;;;;;;3.40;2.00;;;;;;;;;;1473826;40;20428;-79
2021/08/06 00:40:40;;;;;;;3.03;2.30;;;;;;;;;;1467550;40;20502;-80
2021/08/06 00:41:42;;;;;;;3.78;2.20;;;;;;;;;;1469545;40;20828;-81
2021/08/06 00:42:43;;;;;;;2.80;2.45;;;;;;;;;;1469804;40;20461;-79
2021/08/06 00:43:45;;;;;;;5.80;2.60;;;;;;;;;;1477683;40;20487;-80
2021/08/06 00:44:46;;;;;;;4.78;2.22;;;;;;;;;;1477790;40;20685;-80
2021/08/06 00:45:48;;;;;;;3.10;2.10;;;;;;;;;;1473572;40;20543;-79
2021/08/06 00:46:50;;;;;;;3.22;2.30;;;;;;;;;;1477819;40;20405;-80
2021/08/06 00:47:52;;;;;;;4.07;1.75;;;;;;;;;;1481820;40;20538;-80
2021/08/06 00:48:53;;;;;;;3.97;2.20;;;;;;;;;;1472388;40;20522;-80
2021/08/06 00:49:55;;;;;;;2.30;2.10;;;;;;;;;;1465291;40;20423;-80
2021/08/06 00:50:58;;;;;;;4.13;2.40;;;;;;;;;;1472425;40;20463;-80
2021/08/06 00:52:00;;;;;;;4.22;2.67;;;;;;;;;;1473185;40;20465;-79
2021/08/06 00:53:01;;;;;;;2.67;2.20;;;;;;;;;;1467470;40;20457;-80
2021/08/06 00:54:04;;;;;;;4.72;2.40;;;;;;;;;;1470056;40;20545;-80
2021/08/06 00:55:06;;;;;;;2.72;2.22;;;;;;;;;;1473311;40;20460;-83
2021/08/06 00:56:09;;;;;;;3.13;2.35;;;;;;;;;;1469276;40;20477;-81
2021/08/06 00:57:16;;;;;;;5.40;2.67;;;;;;;;;;1469513;40;20410;-80
2021/08/06 00:58:18;;;;;;;3.55;2.58;;;;;;;;;;1474230;40;20420;-79
2021/08/06 00:59:19;;;;;;;3.40;2.25;;;;;;;;;;1478235;40;20402;-79
2021/08/06 01:00:21;;;;;;;4.85;2.67;;;;;;;;;;1473586;40;20419;-79
2021/08/06 01:01:26;;;;;;;4.07;2.55;;;;;;;;;;1473496;40;20439;-80
2021/08/06 01:02:37;;;;;;;5.45;2.65;;;;;;;;;;1469228;40;20405;-80
2021/08/06 01:03:54;;;;;;;3.03;2.15;;;;;;;;;;1469854;40;20437;-80
2021/08/06 01:04:58;;;;;;;2.50;2.35;;;;;;;;;;1473230;40;20447;-80
2021/08/06 01:06:07;;;;;;;3.28;2.50;;;;;;;;;;1479376;40;20416;-81
2021/08/06 01:07:18;;;;;;;4.32;2.13;;;;;;;;;;1478443;40;20403;-82
2021/08/06 01:08:34;;;;;;;4.60;2.93;;;;;;;;;;1478420;40;20386;-79
2021/08/06 01:09:39;;;;;;;3.20;2.30;;;;;;;;;;1478274;40;20788;-79
2021/08/06 01:10:54;;;;;;;2.72;2.40;;;;;;;;;;1478314;40;20449;-80
2021/08/06 01:11:58;;;;;;;3.10;2.42;;;;;;;;;;1478592;40;20390;-79
2021/08/06 01:13:00;;;;;;;4.65;2.40;;;;;;;;;;1478029;40;20399;-80
2021/08/06 01:14:06;;;;;;;2.80;2.25;;;;;;;;;;1478053;40;20509;-79
2021/08/06 01:15:10;;;;;;;3.07;2.77;;;;;;;;;;1478240;40;21108;-81
2021/08/06 01:16:13;;;;;;;3.10;2.80;;;;;;;;;;1475915;40;20429;-79
2021/08/06 01:17:16;;;;;;;2.70;2.25;;;;;;;;;;1473428;40;20520;-79
2021/08/06 01:18:19;;;;;;;3.65;2.78;;;;;;;;;;1474209;40;20432;-82
2021/08/06 01:19:40;;;;;;;2.95;2.58;;;;;;;;;;1473875;40;20436;-80
2021/08/06 01:20:45;;;;;;;3.20;2.90;;;;;;;;;;1473464;40;20853;-79
2021/08/06 01:21:50;;;;;;;2.80;2.60;;;;;;;;;;1474901;40;21034;-80
2021/08/06 01:23:00;;;;;;;3.70;3.10;;;;;;;;;;1468455;40;20414;-80
2021/08/06 01:24:06;;;;;;;2.90;2.70;;;;;;;;;;1470282;40;20486;-80
2021/08/06 01:25:13;;;;;;;2.78;2.55;;;;;;;;;;1473450;40;20791;-82
2021/08/06 01:26:18;;;;;;;3.22;2.90;;;;;;;;;;1473664;40;20428;-80
2021/08/06 01:27:22;;;;;;;4.13;3.03;;;;;;;;;;1469385;40;20476;-80
2021/08/06 01:28:27;;;;;;;3.00;2.80;;;;;;;;;;1466610;40;21069;-79
2021/08/06 01:29:29;;;;;;;2.75;2.55;;;;;;;;;;1473696;40;21056;-79
2021/08/06 01:30:31;;;;;;;3.10;2.70;;;;;;;;;;1473392;40;20519;-79
2021/08/06 01:31:32;;;;;;;2.90;2.70;;;;;;;;;;1473705;40;20464;-80
2021/08/06 01:32:35;;;;;;;3.03;2.83;;;;;;;;;;1478047;40;20442;-80
2021/08/06 01:33:37;;;;;;;2.90;2.60;;;;;;;;;;1473682;40;20412;-79
2021/08/06 01:34:39;;;;;;;3.63;2.70;;;;;;;;;;1469732;40;20418;-80
2021/08/06 01:35:41;;;;;;;4.30;2.97;;;;;;;;;;1469152;40;20539;-81
2021/08/06 01:36:42;;;;;;;3.75;3.17;;;;;;;;;;1473682;40;20396;-80
2021/08/06 01:37:44;;;;;;;4.00;2.83;;;;;;;;;;1477714;40;20819;-81
2021/08/06 01:38:46;;;;;;;3.15;2.50;;;;;;;;;;1477724;40;20512;-80
2021/08/06 01:39:48;;;;;;;4.18;2.70;;;;;;;;;;1481076;40;20425;-79
2021/08/06 01:41:17;;;;;;;2.78;2.58;;;;;;;;;;1482769;40;20450;-82
2021/08/06 01:42:37;;;;;;;3.33;2.80;;;;;;;;;;1478092;40;20419;-81
2021/08/06 01:44:00;;;;;;;3.10;2.88;;;;;;;;;;1475056;40;20407;-80
2021/08/06 01:45:06;;;;;;;3.58;2.95;;;;;;;;;;1478971;40;20795;-80
2021/08/06 01:46:16;;;;;;;4.25;2.88;;;;;;;;;;1480994;40;20506;-82
2021/08/06 01:47:23;;;;;;;6.25;3.10;;;;;;;;;;1475188;40;20382;-79
2021/08/06 01:48:30;;;;;;;2.70;2.50;;;;;;;;;;1475388;40;20409;-80
2021/08/06 01:49:56;;;;;;;3.28;2.70;;;;;;;;;;1472258;40;20464;-80
2021/08/06 01:50:58;;;;;;;2.67;2.47;;;;;;;;;;1472695;40;20774;-80
2021/08/06 01:52:08;;;;;;;2.65;2.45;;;;;;;;;;1470603;40;20455;-79
2021/08/06 01:53:15;;;;;;;2.58;2.38;;;;;;;;;;1467226;40;20794;-80
2021/08/06 01:54:21;;;;;;;3.60;2.40;;;;;;;;;;1470381;40;20518;-81
2021/08/06 01:55:23;;;;;;;3.00;2.80;;;;;;;;;;1474588;40;20435;-80
2021/08/06 01:56:24;;;;;;;3.05;2.10;;;;;;;;;;1469632;40;20422;-80
2021/08/06 01:57:27;;;;;;;3.05;2.50;;;;;;;;;;1469911;40;20547;-80
2021/08/06 01:58:29;;;;;;;2.97;2.60;;;;;;;;;;1476952;40;20678;-80
2021/08/06 01:59:31;;;;;;;4.22;2.22;;;;;;;;;;1477694;40;20402;-80
2021/08/06 02:00:34;;;;;;;2.50;2.30;;;;;;;;;;1473587;40;20542;-80
2021/08/06 02:01:37;;;;;;;3.60;2.30;;;;;;;;;;1473955;40;20439;-81
2021/08/06 02:02:39;;;;;;;3.42;2.63;;;;;;;;;;1473410;40;20427;-80
2021/08/06 02:03:41;;;;;;;3.33;2.20;;;;;;;;;;1469764;40;20399;-80
2021/08/06 02:04:45;;;;;;;3.03;2.22;;;;;;;;;;1473440;40;20407;-80
2021/08/06 02:05:53;;;;;;;2.10;2.00;;;;;;;;;;1473588;40;20396;-81
2021/08/06 02:06:55;;;;;;;2.15;2.05;;;;;;;;;;1469337;40;20484;-80
2021/08/06 02:07:57;;;;;;;2.28;2.10;;;;;;;;;;1465579;40;20514;-80
2021/08/06 02:08:58;;;;;;;2.20;2.00;;;;;;;;;;1464804;40;20435;-80
2021/08/06 02:10:00;;;;;;;3.42;2.38;;;;;;;;;;1465653;40;20871;-80
2021/08/06 02:11:02;;;;;;;3.17;1.92;;;;;;;;;;1469444;40;20438;-80
2021/08/06 02:12:04;;;;;;;2.38;2.10;;;;;;;;;;1473560;40;20478;-80
2021/08/06 02:13:06;;;;;;;2.28;2.08;;;;;;;;;;1469308;40;20476;-79
2021/08/06 02:14:09;;;;;;;3.78;2.08;;;;;;;;;;1469634;40;20685;-83
2021/08/06 02:15:13;;;;;;;1.85;1.75;;;;;;;;;;1473998;40;20805;-83
2021/08/06 02:16:15;;;;;;;2.70;2.03;;;;;;;;;;1473534;40;20588;-80
2021/08/06 02:17:20;;;;;;;2.85;1.75;;;;;;;;;;1473582;40;20438;-80
2021/08/06 02:18:23;;;;;;;2.50;2.15;;;;;;;;;;1477465;40;20803;-83
2021/08/06 02:19:25;;;;;;;1.55;1.45;;;;;;;;;;1473269;40;20415;-80
2021/08/06 02:20:28;;;;;;;2.15;1.65;;;;;;;;;;1473367;40;20514;-80
2021/08/06 02:21:33;;;;;;;2.55;1.40;;;;;;;;;;1473264;40;20430;-80
2021/08/06 02:22:35;;;;;;;3.10;1.60;;;;;;;;;;1473552;40;20412;-80
2021/08/06 02:23:38;;;;;;;2.53;1.40;;;;;;;;;;1474338;40;20404;-80
2021/08/06 02:24:42;;;;;;;2.45;1.27;;;;;;;;;;1474280;40;20527;-80
2021/08/06 02:25:45;;;;;;;2.77;1.40;;;;;;;;;;1474402;40;20410;-80
2021/08/06 02:26:48;;;;;;;3.10;1.30;;;;;;;;;;1473633;40;21106;-79
2021/08/06 02:27:52;;;;;;;1.80;1.60;;;;;;;;;;1470240;40;20401;-80
2021/08/06 02:28:55;;;;;;;2.60;1.30;;;;;;;;;;1470753;40;20462;-79
2021/08/06 02:29:58;;;;;;;2.88;1.40;;;;;;;;;;1475652;40;20400;-80
2021/08/06 02:31:00;;;;;;;3.38;1.20;;;;;;;;;;1477902;40;20429;-81
2021/08/06 02:32:02;;;;;;;2.17;1.20;;;;;;;;;;1478222;40;20526;-80
2021/08/06 02:33:04;;;;;;;2.78;1.67;;;;;;;;;;1475352;40;20404;-80
2021/08/06 02:34:07;;;;;;;2.80;1.20;;;;;;;;;;1479652;40;20421;-80
2021/08/06 02:35:10;;;;;;;1.27;1.17;;;;;;;;;;1475114;40;20412;-81
2021/08/06 02:36:12;;;;;;;2.50;1.50;;;;;;;;;;1475071;40;20479;-80
2021/08/06 02:37:14;;;;;;;1.50;1.40;;;;;;;;;;1470187;40;20844;-80
2021/08/06 02:38:21;;;;;;;4.50;1.75;;;;;;;;;;1471204;40;20791;-79
2021/08/06 02:39:26;;;;;;;2.53;1.27;;;;;;;;;;1476024;40;20380;-80
2021/08/06 02:40:27;;;;;;;1.83;1.40;;;;;;;;;;1475963;40;20520;-80
2021/08/06 02:41:29;;;;;;;1.60;1.10;;;;;;;;;;1477987;40;20639;-79
2021/08/06 02:42:33;;;;;;;4.05;1.60;;;;;;;;;;1478911;40;20849;-80
2021/08/06 02:43:38;;;;;;;1.98;1.17;;;;;;;;;;1477256;40;20397;-79
2021/08/06 02:44:41;;;;;;;1.85;1.20;;;;;;;;;;1474241;40;20948;-79
2021/08/06 02:45:44;;;;;;;4.65;1.67;;;;;;;;;;1474725;40;20449;-81
2021/08/06 02:46:45;;;;;;;2.40;1.20;;;;;;;;;;1478623;40;20394;-80
2021/08/06 02:47:48;;;;;;;2.53;1.48;;;;;;;;;;1480585;40;20463;-79
2021/08/06 02:48:50;;;;;;;1.77;1.30;;;;;;;;;;1476701;40;20414;-79
2021/08/06 02:49:51;;;;;;;3.10;1.37;;;;;;;;;;1477235;40;20503;-80
2021/08/06 02:50:53;;;;;;;1.40;1.30;;;;;;;;;;1477104;40;20683;-79
2021/08/06 02:51:54;;;;;;;2.85;1.13;;;;;;;;;;1475461;40;20843;-80
2021/08/06 02:52:56;;;;;;;7.15;1.40;;;;;;;;;;1473873;40;20522;-79
2021/08/06 02:53:58;;;;;;;2.42;1.30;;;;;;;;;;1474351;40;20777;-79
2021/08/06 02:55:00;;;;;;;1.55;1.20;;;;;;;;;;1478556;40;20427;-79
2021/08/06 02:56:01;;;;;;;8.95;1.63;;;;;;;;;;1479579;40;20492;-80
2021/08/06 02:57:03;;;;;;;1.50;1.23;;;;;;;;;;1482457;40;20479;-80
2021/08/06 02:58:05;;;;;;;2.60;1.15;;;;;;;;;;1482398;40;20448;-80
2021/08/06 02:59:06;;;;;;;2.72;1.67;;;;;;;;;;1481947;40;20467;-79
2021/08/06 03:00:09;;;;;;;2.10;1.23;;;;;;;;;;1482471;40;20515;-81
2021/08/06 03:01:10;;;;;;;2.20;1.20;;;;;;;;;;1481987;40;20408;-80
2021/08/06 03:02:12;;;;;;;1.73;1.23;;;;;;;;;;1482363;40;20899;-80
2021/08/06 03:03:14;;;;;;;2.90;1.50;;;;;;;;;;1481849;40;20424;-80
2021/08/06 03:04:16;;;;;;;1.60;1.00;;;;;;;;;;1481804;40;20401;-80
2021/08/06 03:05:17;;;;;;;2.17;1.20;;;;;;;;;;1477136;40;20399;-80
2021/08/06 03:06:19;;;;;;;2.10;1.20;;;;;;;;;;1473737;40;20790;-80
2021/08/06 03:07:21;;;;;;;3.22;1.00;;;;;;;;;;1477550;40;20453;-79
2021/08/06 03:08:23;;;;;;;1.80;1.23;;;;;;;;;;1475954;40;20537;-80
2021/08/06 03:09:24;;;;;;;3.30;1.05;;;;;;;;;;1469109;40;20429;-79
2021/08/06 03:10:26;;;;;;;2.17;1.50;;;;;;;;;;1465443;40;20498;-80
2021/08/06 03:11:28;;;;;;;1.70;1.27;;;;;;;;;;1461050;40;20512;-80
2021/08/06 03:12:29;;;;;;;2.30;1.10;;;;;;;;;;1469394;40;20548;-80
2021/08/06 03:13:31;;;;;;;1.40;1.30;;;;;;;;;;1473368;40;20460;-80
2021/08/06 03:14:33;;;;;;;1.70;1.07;;;;;;;;;;1473101;40;20569;-80
2021/08/06 03:15:34;;;;;;;1.52;1.35;;;;;;;;;;1469572;40;20416;-80
2021/08/06 03:16:36;;;;;;;4.03;1.50;;;;;;;;;;1467676;40;20445;-80
2021/08/06 03:17:42;;;;;;;1.45;1.35;;;;;;;;;;1473415;40;20470;-80
2021/08/06 03:18:44;;;;;;;2.92;1.40;;;;;;;;;;1471333;40;20400;-80
2021/08/06 03:19:50;;;;;;;2.42;1.58;;;;;;;;;;1469528;40;20984;-80
2021/08/06 03:20:52;;;;;;;3.38;2.00;;;;;;;;;;1472891;40;20427;-80
2021/08/06 03:21:53;;;;;;;5.63;1.98;;;;;;;;;;1477512;40;20514;-80
2021/08/06 03:22:55;;;;;;;2.08;1.95;;;;;;;;;;1469032;40;20441;-80
2021/08/06 03:23:57;;;;;;;2.47;2.03;;;;;;;;;;1469047;40;20483;-80
2021/08/06 03:24:58;;;;;;;5.40;2.40;;;;;;;;;;1469406;40;20458;-80
2021/08/06 03:26:00;;;;;;;2.50;2.30;;;;;;;;;;1473292;40;20466;-80
2021/08/06 03:27:02;;;;;;;2.95;2.75;;;;;;;;;;1469221;40;20418;-80
2021/08/06 03:28:04;;;;;;;3.70;2.97;;;;;;;;;;1468952;40;20848;-80
2021/08/06 03:29:05;;;;;;;2.80;2.70;;;;;;;;;;1477435;40;20450;-80
2021/08/06 03:30:10;;;;;;;3.08;2.88;;;;;;;;;;1477007;40;20454;-80
2021/08/06 03:31:12;;;;;;;3.15;2.95;;;;;;;;;;1472863;40;20575;-82
2021/08/06 03:32:14;;;;;;;3.20;2.78;;;;;;;;;;1473628;40;20439;-80
2021/08/06 03:33:15;;;;;;;3.15;2.75;;;;;;;;;;1473371;40;20844;-83
2021/08/06 03:34:17;;;;;;;3.25;2.95;;;;;;;;;;1473714;40;20547;-80
2021/08/06 03:35:18;;;;;;;3.22;3.03;;;;;;;;;;1473701;40;20530;-80
2021/08/06 03:36:20;;;;;;;3.73;3.50;;;;;;;;;;1473767;40;20608;-80
2021/08/06 03:37:22;;;;;;;3.55;3.30;;;;;;;;;;1473272;40;20553;-81
2021/08/06 03:38:24;;;;;;;3.30;3.10;;;;;;;;;;1473101;40;20408;-81
2021/08/06 03:39:26;;;;;;;3.75;3.20;;;;;;;;;;1473834;40;20414;-80
2021/08/06 03:40:27;;;;;;;4.05;3.25;;;;;;;;;;1468826;40;20688;-81
2021/08/06 03:41:29;;;;;;;3.47;3.20;;;;;;;;;;1469167;40;20619;-81
2021/08/06 03:42:31;;;;;;;3.47;3.28;;;;;;;;;;1468817;40;20457;-80
2021/08/06 03:43:32;;;;;;;3.67;3.35;;;;;;;;;;1465114;40;21252;-80
2021/08/06 03:44:34;;;;;;;4.43;3.40;;;;;;;;;;1468917;40;20455;-80
2021/08/06 03:45:36;;;;;;;5.50;3.30;;;;;;;;;;1473825;40;20419;-80
2021/08/06 03:46:37;;;;;;;3.33;3.13;;;;;;;;;;1466897;40;20414;-80
2021/08/06 03:47:39;;;;;;;3.30;2.90;;;;;;;;;;1465093;40;21181;-80
2021/08/06 03:48:41;;;;;;;5.68;3.25;;;;;;;;;;1473276;40;20844;-80
2021/08/06 03:49:47;;;;;;;3.60;3.30;;;;;;;;;;1477953;40;20407;-80
2021/08/06 03:50:49;;;;;;;3.58;3.15;;;;;;;;;;1472699;40;20459;-80
2021/08/06 03:51:50;;;;;;;3.55;3.35;;;;;;;;;;1469163;40;20513;-80
2021/08/06 03:52:52;;;;;;;3.30;3.00;;;;;;;;;;1472969;40;20404;-80
2021/08/06 03:53:54;;;;;;;3.72;3.25;;;;;;;;;;1477816;40;20541;-80
2021/08/06 03:54:55;;;;;;;3.88;3.22;;;;;;;;;;1472751;40;20772;-80
2021/08/06 03:55:57;;;;;;;3.33;3.03;;;;;;;;;;1469120;40;20492;-80
2021/08/06 03:56:58;;;;;;;4.45;3.22;;;;;;;;;;1472946;40;20475;-80
2021/08/06 03:58:01;;;;;;;6.55;3.67;;;;;;;;;;1477332;40;20810;-80
2021/08/06 03:59:02;;;;;;;3.05;2.63;;;;;;;;;;1469004;40;20449;-80
2021/08/06 04:00:04;;;;;;;3.33;2.80;;;;;;;;;;1465249;40;20443;-80
2021/08/06 04:01:06;;;;;;;4.93;3.00;;;;;;;;;;1468964;40;20531;-81
2021/08/06 04:02:08;;;;;;;3.05;2.75;;;;;;;;;;1473437;40;20466;-82
2021/08/06 04:03:10;;;;;;;6.43;4.38;;;;;;;;;;1469302;40;20417;-83
2021/08/06 04:04:11;;;;;;;3.03;2.78;;;;;;;;;;1469191;40;20401;-83
2021/08/06 04:05:13;;;;;;;3.15;2.85;;;;;;;;;;1473442;40;20471;-82
2021/08/06 04:06:16;;;;;;;7.65;3.55;;;;;;;;;;1468995;40;20437;-80
2021/08/06 04:07:17;;;;;;;3.00;2.80;;;;;;;;;;1469358;40;20492;-80
2021/08/06 04:08:19;;;;;;;4.65;3.20;;;;;;;;;;1473441;40;20412;-80
2021/08/06 04:09:20;;;;;;;3.58;2.70;;;;;;;;;;1473613;40;20392;-80
2021/08/06 04:10:23;;;;;;;4.68;2.78;;;;;;;;;;1473823;40;20439;-79
2021/08/06 04:11:24;;;;;;;4.40;3.58;;;;;;;;;;1472983;40;20422;-80
2021/08/06 04:12:26;;;;;;;4.30;2.78;;;;;;;;;;1473673;40;20772;-81
2021/08/06 04:13:27;;;;;;;4.55;3.13;;;;;;;;;;1469003;40;20508;-80
2021/08/06 04:14:29;;;;;;;6.65;3.40;;;;;;;;;;1468952;40;20529;-81
2021/08/06 04:15:31;;;;;;;3.00;2.70;;;;;;;;;;1469094;40;21030;-81
2021/08/06 04:16:32;;;;;;;3.30;3.00;;;;;;;;;;1471291;40;20499;-80
2021/08/06 04:17:34;;;;;;;4.13;3.80;;;;;;;;;;1468938;40;20448;-80
2021/08/06 04:18:36;;;;;;;6.18;3.55;;;;;;;;;;1469145;40;20409;-80
2021/08/06 04:19:37;;;;;;;4.43;3.50;;;;;;;;;;1477207;40;20405;-80
2021/08/06 04:20:39;;;;;;;4.00;3.67;;;;;;;;;;1476800;40;20442;-80
2021/08/06 04:21:40;;;;;;;5.10;4.00;;;;;;;;;;1477961;40;21167;-80
2021/08/06 04:22:42;;;;;;;5.07;4.10;;;;;;;;;;1477507;40;20894;-79
2021/08/06 04:23:44;;;;;;;4.35;3.97;;;;;;;;;;1477054;40;20455;-80
2021/08/06 04:24:46;;;;;;;4.22;3.92;;;;;;;;;;1469207;40;20488;-80
2021/08/06 04:25:47;;;;;;;6.55;3.88;;;;;;;;;;1469278;40;20901;-80
2021/08/06 04:26:49;;;;;;;3.75;3.45;;;;;;;;;;1479027;40;21066;-79
2021/08/06 04:27:50;;;;;;;4.22;3.78;;;;;;;;;;1481399;40;20506;-80
2021/08/06 04:28:52;;;;;;;4.38;3.97;;;;;;;;;;1472862;40;20398;-79
2021/08/06 04:29:54;;;;;;;5.57;4.47;;;;;;;;;;1472708;40;20413;-79
2021/08/06 04:31:00;;;;;;;4.38;3.88;;;;;;;;;;1473616;40;20493;-80
2021/08/06 04:32:02;;;;;;;6.07;4.05;;;;;;;;;;1473898;40;20416;-80
2021/08/06 04:33:04;;;;;;;5.63;3.92;;;;;;;;;;1471028;40;20434;-81
2021/08/06 04:34:06;;;;;;;4.22;3.85;;;;;;;;;;1473433;40;20959;-82
2021/08/06 04:35:08;;;;;;;5.22;4.28;;;;;;;;;;1474125;40;20425;-80
2021/08/06 04:36:09;;;;;;;7.25;4.60;;;;;;;;;;1479153;40;20416;-82
2021/08/06 04:37:12;;;;;;;4.78;3.90;;;;;;;;;;1475420;40;20412;-83
2021/08/06 04:38:13;;;;;;;5.45;4.00;;;;;;;;;;1474206;40;20419;-82
2021/08/06 04:39:15;;;;;;;4.53;4.13;;;;;;;;;;1474794;40;20439;-80
2021/08/06 04:40:17;;;;;;;5.70;4.10;;;;;;;;;;1474201;40;20479;-80
2021/08/06 04:41:18;;;;;;;7.28;4.57;;;;;;;;;;1473523;40;20473;-80
2021/08/06 04:42:20;;;;;;;6.78;3.85;;;;;;;;;;1474001;40;20422;-79
2021/08/06 04:43:21;;;;;;;5.70;4.10;;;;;;;;;;1474178;40;20527;-80
2021/08/06 04:44:23;;;;;;;6.65;4.60;;;;;;;;;;1474535;40;20573;-79
2021/08/06 04:45:25;;;;;;;4.80;4.30;;;;;;;;;;1477807;40;20549;-80
2021/08/06 04:46:27;;;;;;;5.10;3.75;;;;;;;;;;1477780;40;20413;-80
2021/08/06 04:47:29;;;;;;;5.75;3.47;;;;;;;;;;1469504;40;21135;-80
2021/08/06 04:48:30;;;;;;;5.20;3.83;;;;;;;;;;1469186;40;20445;-80
2021/08/06 04:49:32;;;;;;;5.35;3.55;;;;;;;;;;1474162;40;20432;-80
2021/08/06 04:50:34;;;;;;;7.15;4.10;;;;;;;;;;1469545;40;20848;-80
2021/08/06 04:51:36;;;;;;;5.18;3.78;;;;;;;;;;1469668;40;20449;-80
2021/08/06 04:52:38;;;;;;;5.03;3.85;;;;;;;;;;1472804;40;20440;-80
2021/08/06 04:53:40;;;;;;;5.22;3.75;;;;;;;;;;1474053;40;20798;-80
2021/08/06 04:54:41;;;;;;;4.05;3.75;;;;;;;;;;1473780;40;20428;-81
2021/08/06 04:55:43;;;;;;;4.97;3.13;;;;;;;;;;1473699;40;20698;-80
2021/08/06 04:56:44;;;;;;;4.63;4.25;;;;;;;;;;1473607;40;20726;-80
2021/08/06 04:57:47;;;;;;;6.82;3.78;;;;;;;;;;1474146;40;20403;-80
2021/08/06 04:58:49;;;;;;;4.25;3.85;;;;;;;;;;1474286;40;20400;-80
2021/08/06 04:59:51;;;;;;;4.70;3.53;;;;;;;;;;1473659;40;20423;-80
2021/08/06 05:00:52;;;;;;;5.50;3.80;;;;;;;;;;1474327;40;20552;-80
2021/08/06 05:01:54;;;;;;;5.35;4.03;;;;;;;;;;1474239;40;20415;-80
2021/08/06 05:02:57;;;;;;;5.63;4.07;;;;;;;;;;1474170;40;20868;-80
2021/08/06 05:03:58;;;;;;;6.72;4.13;;;;;;;;;;1469609;40;20410;-80
2021/08/06 05:05:03;;;;;;;6.90;4.10;;;;;;;;;;1469804;40;20823;-80
2021/08/06 05:06:05;;;;;;;6.05;3.65;;;;;;;;;;1465533;40;20425;-80
2021/08/06 05:07:06;;;;;;;7.22;4.15;;;;;;;;;;1469899;40;20488;-80
2021/08/06 05:08:08;;;;;;;4.40;3.80;;;;;;;;;;1474096;40;20464;-80
2021/08/06 05:09:10;;;;;;;5.75;3.83;;;;;;;;;;1470343;40;20462;-80
2021/08/06 05:10:12;;;;;;;7.85;3.58;;;;;;;;;;1472696;40;20412;-81
2021/08/06 05:11:17;;;;;;;5.55;3.78;;;;;;;;;;1472585;40;20797;-82
2021/08/06 05:12:19;;;;;;;10.57;4.07;;;;;;;;;;1479685;40;20422;-82
2021/08/06 05:13:20;;;;;;;4.53;3.67;;;;;;;;;;1476470;40;20731;-82
2021/08/06 05:14:22;;;;;;;6.03;3.60;;;;;;;;;;1474784;40;20437;-83
2021/08/06 05:15:23;;;;;;;5.07;3.55;;;;;;;;;;1472936;40;20466;-80
2021/08/06 05:16:25;;;;;;;6.53;3.78;;;;;;;;;;1469057;40;20410;-80
2021/08/06 05:17:26;;;;;;;5.35;3.28;;;;;;;;;;1475835;40;20502;-79
2021/08/06 05:18:28;;;;;;;9.35;3.65;;;;;;;;;;1482307;40;20405;-80
2021/08/06 05:19:30;;;;;;;4.70;3.28;;;;;;;;;;1483915;40;20464;-79
2021/08/06 05:20:32;;;;;;;6.75;3.20;;;;;;;;;;1479652;40;20705;-79
2021/08/06 05:21:34;;;;;;;4.22;2.67;;;;;;;;;;1480186;40;20486;-81
2021/08/06 05:22:35;;;;;;;4.65;3.10;;;;;;;;;;1483066;40;20418;-79
2021/08/06 05:23:37;;;;;;;6.25;3.22;;;;;;;;;;1477949;40;20435;-79
2021/08/06 05:24:39;;;;;;;4.72;3.88;;;;;;;;;;1478300;40;20412;-79
2021/08/06 05:25:41;;;;;;;5.40;3.55;;;;;;;;;;1480706;40;20406;-79
2021/08/06 05:26:42;;;;;;;3.47;3.00;;;;;;;;;;1474714;40;20729;-79
2021/08/06 05:27:44;;;;;;;4.65;3.45;;;;;;;;;;1470856;40;20506;-79
2021/08/06 05:28:46;;;;;;;5.53;3.50;;;;;;;;;;1471394;40;20394;-79
2021/08/06 05:29:49;;;;;;;4.07;3.05;;;;;;;;;;1470477;40;20453;-81
2021/08/06 05:30:51;;;;;;;4.55;3.30;;;;;;;;;;1466115;40;20414;-80
2021/08/06 05:31:53;;;;;;;4.75;3.58;;;;;;;;;;1470050;40;20548;-80
2021/08/06 05:32:56;;;;;;;11.00;3.65;;;;;;;;;;1469499;40;20727;-81
2021/08/06 05:34:00;;;;;;;5.13;3.80;;;;;;;;;;1465925;40;20404;-80
2021/08/06 05:35:01;;;;;;;4.45;3.42;;;;;;;;;;1469695;40;20398;-80
2021/08/06 05:36:03;;;;;;;6.45;3.60;;;;;;;;;;1469279;40;20857;-80
2021/08/06 05:37:05;;;;;;;5.32;3.50;;;;;;;;;;1469465;40;20457;-80
2021/08/06 05:38:07;;;;;;;5.60;3.67;;;;;;;;;;1469442;40;20556;-80
2021/08/06 05:39:09;;;;;;;6.40;4.10;;;;;;;;;;1469373;40;20413;-80
2021/08/06 05:40:10;;;;;;;3.47;3.05;;;;;;;;;;1473976;40;20442;-82
2021/08/06 05:41:12;;;;;;;4.72;3.60;;;;;;;;;;1473500;40;20436;-82
2021/08/06 05:42:14;;;;;;;5.68;4.00;;;;;;;;;;1473402;40;20404;-82
2021/08/06 05:43:16;;;;;;;7.15;4.10;;;;;;;;;;1477876;40;20405;-80
2021/08/06 05:44:17;;;;;;;6.03;3.45;;;;;;;;;;1478388;40;20426;-80
2021/08/06 05:45:19;;;;;;;5.88;3.85;;;;;;;;;;1469186;40;20509;-80
2021/08/06 05:46:21;;;;;;;4.93;3.58;;;;;;;;;;1469406;40;20437;-80
2021/08/06 05:47:23;;;;;;;5.70;4.32;;;;;;;;;;1469285;40;20465;-80
2021/08/06 05:48:24;;;;;;;4.82;4.13;;;;;;;;;;1473661;40;20436;-80
2021/08/06 05:49:26;;;;;;;9.30;4.05;;;;;;;;;;1473330;40;20913;-80
2021/08/06 05:50:28;;;;;;;9.70;4.70;;;;;;;;;;1472887;40;20455;-82
2021/08/06 05:51:30;;;;;;;5.38;4.05;;;;;;;;;;1477568;40;21386;-81
2021/08/06 05:52:32;;;;;;;4.68;3.47;;;;;;;;;;1477592;40;20484;-80
2021/08/06 05:53:33;;;;;;;4.13;3.80;;;;;;;;;;1473531;40;20532;-81
2021/08/06 05:54:35;;;;;;;4.75;4.03;;;;;;;;;;1473101;40;20460;-80
2021/08/06 05:55:36;;;;;;;4.88;4.38;;;;;;;;;;1473939;40;20470;-80
2021/08/06 05:56:38;;;;;;;11.38;4.30;;;;;;;;;;1473848;40;20819;-80
2021/08/06 05:57:40;;;;;;;6.20;4.43;;;;;;;;;;1473814;40;20431;-81
2021/08/06 05:58:42;;;;;;;6.38;4.07;;;;;;;;;;1474044;40;20427;-80
2021/08/06 05:59:43;;;;;;;5.55;4.10;;;;;;;;;;1473570;40;20813;-80
2021/08/06 06:00:45;;;;;;;4.97;3.72;;;;;;;;;;1473087;40;21050;-79
2021/08/06 06:01:48;;;;;;;5.40;4.07;;;;;;;;;;1469296;40;20410;-80
2021/08/06 06:02:49;;;;;;;7.93;4.05;;;;;;;;;;1461308;40;20421;-80
2021/08/06 06:03:51;;;;;;;7.45;4.13;;;;;;;;;;1464733;40;20785;-80
2021/08/06 06:04:52;;;;;;;5.57;3.22;;;;;;;;;;1473596;40;20427;-81
2021/08/06 06:05:54;;;;;;;6.15;3.58;;;;;;;;;;1469250;40;20484;-80
2021/08/06 06:06:56;;;;;;;7.70;3.85;;;;;;;;;;1465250;40;20432;-80
2021/08/06 06:07:57;;;;;;;3.47;3.20;;;;;;;;;;1465097;40;20762;-80
2021/08/06 06:08:59;;;;;;;8.82;3.58;;;;;;;;;;1469414;40;20405;-80
2021/08/06 06:10:00;;;;;;;6.38;3.42;;;;;;;;;;1473320;40;20439;-80
2021/08/06 06:11:02;;;;;;;5.32;3.13;;;;;;;;;;1473378;40;20428;-80
2021/08/06 06:12:04;;;;;;;5.15;3.67;;;;;;;;;;1473249;40;20407;-79
2021/08/06 06:13:06;;;;;;;3.97;3.20;;;;;;;;;;1473627;40;20675;-80
2021/08/06 06:14:08;;;;;;;8.48;3.92;;;;;;;;;;1469321;40;20416;-80
2021/08/06 06:15:10;;;;;;;5.30;3.10;;;;;;;;;;1468931;40;20409;-79
2021/08/06 06:16:11;;;;;;;9.45;3.20;;;;;;;;;;1474337;40;20428;-82